sensor_id;sensor_type;location;lat;lon;timestamp;temperature;humidity
10245;DHT22;5167;52.164;10.530;2023-06-10T00:02:08;20.70;5.00
10245;DHT22;5167;52.164;10.530;2023-06-10T00:04:34;20.70;5.00
10245;DHT22;5167;52.164;10.530;2023-06-10T00:07:04;20.60;5.00
10245;DHT22;5167;52.164;10.530;2023-06-10T00:09:34;20.60;5.00
10245;DHT22;5167;52.164;10.530;2023-06-10T00:12:02;20.60;5.00
10245;DHT22;5167;52.164;10.530;2023-06-10T00:14:28;20.60;5.00
10245;DHT22;5167;52.164;10.530;2023-06-10T00:16:53;20.60;5.00
10245;DHT22;5167;52.164;10.530;2023-06-10T00:19:20;20.50;5.00
10245;DHT22;5167;52.164;10.530;2023-06-10T00:21:51;20.50;5.00
10245;DHT22;5167;52.164;10.530;2023-06-10T00:24:18;20.40;5.00
10245;DHT22;5167;52.164;10.530;2023-06-10T00:26:44;20.40;5.00
10245;DHT22;5167;52.164;10.530;2023-06-10T00:29:10;20.40;5.00
10245;DHT22;5167;52.164;10.530;2023-06-10T00:31:37;20.30;5.00
10245;DHT22;5167;52.164;10.530;2023-06-10T00:34:03;20.30;5.00
10245;DHT22;5167;52.164;10.530;2023-06-10T00:36:29;20.20;5.00
10245;DHT22;5167;52.164;10.530;2023-06-10T00:38:55;20.20;5.00
10245;DHT22;5167;52.164;10.530;2023-06-10T00:41:21;20.20;5.00
10245;DHT22;5167;52.164;10.530;2023-06-10T00:43:46;20.10;5.00
10245;DHT22;5167;52.164;10.530;2023-06-10T00:46:12;20.00;5.00
10245;DHT22;5167;52.164;10.530;2023-06-10T00:48:40;20.00;5.00
10245;DHT22;5167;52.164;10.530;2023-06-10T00:51:06;20.00;5.00
10245;DHT22;5167;52.164;10.530;2023-06-10T00:53:35;20.00;5.00
10245;DHT22;5167;52.164;10.530;2023-06-10T00:56:02;19.90;5.00
10245;DHT22;5167;52.164;10.530;2023-06-10T00:58:28;19.80;5.00
10245;DHT22;5167;52.164;10.530;2023-06-10T01:00:54;19.70;5.00
10245;DHT22;5167;52.164;10.530;2023-06-10T01:03:19;19.60;5.00
10245;DHT22;5167;52.164;10.530;2023-06-10T01:09:04;19.60;5.00
10245;DHT22;5167;52.164;10.530;2023-06-10T01:11:57;19.60;5.00
10245;DHT22;5167;52.164;10.530;2023-06-10T01:14:24;19.50;5.00
10245;DHT22;5167;52.164;10.530;2023-06-10T01:16:51;19.50;5.00
10245;DHT22;5167;52.164;10.530;2023-06-10T01:19:18;19.50;5.00
10245;DHT22;5167;52.164;10.530;2023-06-10T01:21:44;19.40;5.00
10245;DHT22;5167;52.164;10.530;2023-06-10T01:24:14;19.40;5.00
10245;DHT22;5167;52.164;10.530;2023-06-10T01:26:43;19.30;5.00
10245;DHT22;5167;52.164;10.530;2023-06-10T01:29:36;19.30;5.00
10245;DHT22;5167;52.164;10.530;2023-06-10T01:32:17;19.20;5.00
10245;DHT22;5167;52.164;10.530;2023-06-10T01:34:44;19.10;5.00
10245;DHT22;5167;52.164;10.530;2023-06-10T01:37:13;19.00;5.00
10245;DHT22;5167;52.164;10.530;2023-06-10T01:39:46;18.90;5.00
10245;DHT22;5167;52.164;10.530;2023-06-10T01:42:12;18.80;5.00
10245;DHT22;5167;52.164;10.530;2023-06-10T01:44:39;18.70;5.00
10245;DHT22;5167;52.164;10.530;2023-06-10T01:47:08;18.70;5.00
10245;DHT22;5167;52.164;10.530;2023-06-10T01:49:42;18.60;5.00
10245;DHT22;5167;52.164;10.530;2023-06-10T01:52:08;18.70;5.00
10245;DHT22;5167;52.164;10.530;2023-06-10T01:54:34;18.50;5.00
10245;DHT22;5167;52.164;10.530;2023-06-10T01:57:01;18.50;5.00
10245;DHT22;5167;52.164;10.530;2023-06-10T01:59:27;18.50;5.00
10245;DHT22;5167;52.164;10.530;2023-06-10T02:01:56;18.50;5.00
10245;DHT22;5167;52.164;10.530;2023-06-10T02:04:21;18.40;5.00
10245;DHT22;5167;52.164;10.530;2023-06-10T02:06:56;18.40;5.00
10245;DHT22;5167;52.164;10.530;2023-06-10T02:09:22;18.30;5.00
10245;DHT22;5167;52.164;10.530;2023-06-10T02:11:48;18.30;5.00
10245;DHT22;5167;52.164;10.530;2023-06-10T02:14:15;18.20;5.00
10245;DHT22;5167;52.164;10.530;2023-06-10T02:16:41;18.20;5.00
10245;DHT22;5167;52.164;10.530;2023-06-10T02:19:07;18.10;5.00
10245;DHT22;5167;52.164;10.530;2023-06-10T02:21:32;18.10;5.00
10245;DHT22;5167;52.164;10.530;2023-06-10T02:24:00;18.00;5.00
10245;DHT22;5167;52.164;10.530;2023-06-10T02:26:26;18.00;5.00
10245;DHT22;5167;52.164;10.530;2023-06-10T02:28:51;18.00;5.10
10245;DHT22;5167;52.164;10.530;2023-06-10T02:31:17;18.00;5.60
10245;DHT22;5167;52.164;10.530;2023-06-10T02:33:44;18.00;6.10
10245;DHT22;5167;52.164;10.530;2023-06-10T02:36:10;17.90;5.70
10245;DHT22;5167;52.164;10.530;2023-06-10T02:38:39;17.90;5.50
10245;DHT22;5167;52.164;10.530;2023-06-10T02:41:05;17.90;5.50
10245;DHT22;5167;52.164;10.530;2023-06-10T02:43:31;17.90;7.00
10245;DHT22;5167;52.164;10.530;2023-06-10T02:45:56;17.80;6.30
10245;DHT22;5167;52.164;10.530;2023-06-10T02:48:24;17.70;7.30
10245;DHT22;5167;52.164;10.530;2023-06-10T02:50:50;17.80;7.30
10245;DHT22;5167;52.164;10.530;2023-06-10T02:53:15;17.70;7.80
10245;DHT22;5167;52.164;10.530;2023-06-10T02:55:41;17.70;7.90
10245;DHT22;5167;52.164;10.530;2023-06-10T02:58:08;17.70;8.00
10245;DHT22;5167;52.164;10.530;2023-06-10T03:00:33;17.60;7.50
10245;DHT22;5167;52.164;10.530;2023-06-10T03:02:59;17.70;7.90
10245;DHT22;5167;52.164;10.530;2023-06-10T03:05:29;17.70;8.10
10245;DHT22;5167;52.164;10.530;2023-06-10T03:07:54;17.50;7.90
10245;DHT22;5167;52.164;10.530;2023-06-10T03:10:20;17.60;7.80
10245;DHT22;5167;52.164;10.530;2023-06-10T03:12:46;17.50;8.40
10245;DHT22;5167;52.164;10.530;2023-06-10T03:15:11;17.50;8.80
10245;DHT22;5167;52.164;10.530;2023-06-10T03:17:37;17.60;9.30
10245;DHT22;5167;52.164;10.530;2023-06-10T03:20:03;17.50;10.00
10245;DHT22;5167;52.164;10.530;2023-06-10T03:22:33;17.50;9.10
10245;DHT22;5167;52.164;10.530;2023-06-10T03:24:59;17.40;9.20
10245;DHT22;5167;52.164;10.530;2023-06-10T03:27:25;17.40;9.40
10245;DHT22;5167;52.164;10.530;2023-06-10T03:29:51;17.40;9.30
10245;DHT22;5167;52.164;10.530;2023-06-10T03:32:16;17.40;9.80
10245;DHT22;5167;52.164;10.530;2023-06-10T03:34:43;17.40;9.90
10245;DHT22;5167;52.164;10.530;2023-06-10T03:37:10;17.30;10.00
10245;DHT22;5167;52.164;10.530;2023-06-10T03:39:36;17.30;10.00
10245;DHT22;5167;52.164;10.530;2023-06-10T03:42:02;17.30;10.20
10245;DHT22;5167;52.164;10.530;2023-06-10T03:44:27;17.20;10.60
10245;DHT22;5167;52.164;10.530;2023-06-10T03:46:54;17.20;10.50
10245;DHT22;5167;52.164;10.530;2023-06-10T03:49:20;17.20;11.10
10245;DHT22;5167;52.164;10.530;2023-06-10T03:51:45;17.20;10.70
10245;DHT22;5167;52.164;10.530;2023-06-10T03:54:11;17.20;11.20
10245;DHT22;5167;52.164;10.530;2023-06-10T03:56:36;17.20;10.70
10245;DHT22;5167;52.164;10.530;2023-06-10T03:59:02;17.20;11.80
10245;DHT22;5167;52.164;10.530;2023-06-10T04:01:28;17.20;11.20
10245;DHT22;5167;52.164;10.530;2023-06-10T04:03:53;17.20;10.90
10245;DHT22;5167;52.164;10.530;2023-06-10T04:06:20;17.20;11.50
10245;DHT22;5167;52.164;10.530;2023-06-10T04:08:48;17.20;10.20
10245;DHT22;5167;52.164;10.530;2023-06-10T04:11:13;17.10;11.20
10245;DHT22;5167;52.164;10.530;2023-06-10T04:13:39;17.10;12.10
10245;DHT22;5167;52.164;10.530;2023-06-10T04:16:05;17.10;11.70
10245;DHT22;5167;52.164;10.530;2023-06-10T04:18:30;17.10;11.90
10245;DHT22;5167;52.164;10.530;2023-06-10T04:20:56;17.10;12.60
10245;DHT22;5167;52.164;10.530;2023-06-10T04:23:22;17.10;11.60
10245;DHT22;5167;52.164;10.530;2023-06-10T04:25:48;17.10;11.30
10245;DHT22;5167;52.164;10.530;2023-06-10T04:28:13;17.10;10.90
10245;DHT22;5167;52.164;10.530;2023-06-10T04:30:39;17.10;13.20
10245;DHT22;5167;52.164;10.530;2023-06-10T04:33:05;17.10;12.50
10245;DHT22;5167;52.164;10.530;2023-06-10T04:35:33;17.20;13.00
10245;DHT22;5167;52.164;10.530;2023-06-10T04:37:59;17.20;12.90
10245;DHT22;5167;52.164;10.530;2023-06-10T04:40:25;17.60;13.30
10245;DHT22;5167;52.164;10.530;2023-06-10T04:42:51;18.30;12.60
10245;DHT22;5167;52.164;10.530;2023-06-10T04:45:16;18.90;8.50
10245;DHT22;5167;52.164;10.530;2023-06-10T04:47:42;19.30;6.10
10245;DHT22;5167;52.164;10.530;2023-06-10T04:50:08;19.30;5.00
10245;DHT22;5167;52.164;10.530;2023-06-10T04:52:33;19.10;5.00
10245;DHT22;5167;52.164;10.530;2023-06-10T04:54:59;19.00;5.00
10245;DHT22;5167;52.164;10.530;2023-06-10T04:57:25;18.90;5.00
10245;DHT22;5167;52.164;10.530;2023-06-10T04:59:52;18.90;5.00
10245;DHT22;5167;52.164;10.530;2023-06-10T05:02:17;19.10;5.00
10245;DHT22;5167;52.164;10.530;2023-06-10T05:04:43;19.10;5.00
10245;DHT22;5167;52.164;10.530;2023-06-10T05:07:09;19.00;5.00
10245;DHT22;5167;52.164;10.530;2023-06-10T05:09:34;18.70;5.30
10245;DHT22;5167;52.164;10.530;2023-06-10T05:12:00;18.50;5.40
10245;DHT22;5167;52.164;10.530;2023-06-10T05:14:25;18.30;6.70
10245;DHT22;5167;52.164;10.530;2023-06-10T05:16:51;18.20;6.80
10245;DHT22;5167;52.164;10.530;2023-06-10T05:19:17;18.10;8.20
10245;DHT22;5167;52.164;10.530;2023-06-10T05:21:44;18.00;8.30
10245;DHT22;5167;52.164;10.530;2023-06-10T05:24:10;17.90;8.80
10245;DHT22;5167;52.164;10.530;2023-06-10T05:26:36;17.90;9.20
10245;DHT22;5167;52.164;10.530;2023-06-10T05:29:05;17.80;9.00
10245;DHT22;5167;52.164;10.530;2023-06-10T05:31:31;17.80;9.60
10245;DHT22;5167;52.164;10.530;2023-06-10T05:33:57;17.80;10.00
10245;DHT22;5167;52.164;10.530;2023-06-10T05:36:23;17.80;10.80
10245;DHT22;5167;52.164;10.530;2023-06-10T05:38:50;17.80;10.60
10245;DHT22;5167;52.164;10.530;2023-06-10T05:41:16;17.90;11.30
10245;DHT22;5167;52.164;10.530;2023-06-10T05:43:41;18.00;11.50
10245;DHT22;5167;52.164;10.530;2023-06-10T05:46:07;18.10;9.70
10245;DHT22;5167;52.164;10.530;2023-06-10T05:48:33;18.10;9.30
10245;DHT22;5167;52.164;10.530;2023-06-10T05:50:58;18.30;10.50
10245;DHT22;5167;52.164;10.530;2023-06-10T05:53:24;18.30;10.30
10245;DHT22;5167;52.164;10.530;2023-06-10T05:55:50;18.50;9.40
10245;DHT22;5167;52.164;10.530;2023-06-10T05:58:16;18.70;9.10
10245;DHT22;5167;52.164;10.530;2023-06-10T06:00:42;18.80;8.50
10245;DHT22;5167;52.164;10.530;2023-06-10T06:03:08;19.00;5.40
10245;DHT22;5167;52.164;10.530;2023-06-10T06:05:34;19.10;6.50
10245;DHT22;5167;52.164;10.530;2023-06-10T06:08:10;19.40;5.70
10245;DHT22;5167;52.164;10.530;2023-06-10T06:10:35;19.50;5.00
10245;DHT22;5167;52.164;10.530;2023-06-10T06:13:01;19.70;5.00
10245;DHT22;5167;52.164;10.530;2023-06-10T06:15:27;19.80;5.00
10245;DHT22;5167;52.164;10.530;2023-06-10T06:17:53;20.00;5.00
10245;DHT22;5167;52.164;10.530;2023-06-10T06:20:22;20.10;5.00
10245;DHT22;5167;52.164;10.530;2023-06-10T06:22:48;20.10;5.00
10245;DHT22;5167;52.164;10.530;2023-06-10T06:25:14;20.20;5.00
10245;DHT22;5167;52.164;10.530;2023-06-10T06:27:40;20.30;5.00
10245;DHT22;5167;52.164;10.530;2023-06-10T06:30:06;20.50;5.00
10245;DHT22;5167;52.164;10.530;2023-06-10T06:32:32;20.60;5.00
10245;DHT22;5167;52.164;10.530;2023-06-10T06:34:58;20.60;5.00
10245;DHT22;5167;52.164;10.530;2023-06-10T06:37:25;20.70;5.00
10245;DHT22;5167;52.164;10.530;2023-06-10T06:39:51;20.70;5.00
10245;DHT22;5167;52.164;10.530;2023-06-10T06:42:17;20.80;5.00
10245;DHT22;5167;52.164;10.530;2023-06-10T06:44:43;20.90;5.00
10245;DHT22;5167;52.164;10.530;2023-06-10T06:47:09;21.00;5.00
10245;DHT22;5167;52.164;10.530;2023-06-10T06:49:35;21.10;5.00
10245;DHT22;5167;52.164;10.530;2023-06-10T06:52:01;21.20;5.00
10245;DHT22;5167;52.164;10.530;2023-06-10T06:54:34;21.20;5.00
10245;DHT22;5167;52.164;10.530;2023-06-10T06:57:02;21.30;5.00
10245;DHT22;5167;52.164;10.530;2023-06-10T06:59:28;21.30;5.00
10245;DHT22;5167;52.164;10.530;2023-06-10T07:01:53;21.40;5.00
10245;DHT22;5167;52.164;10.530;2023-06-10T07:04:20;21.50;5.00
10245;DHT22;5167;52.164;10.530;2023-06-10T07:06:47;21.50;5.00
10245;DHT22;5167;52.164;10.530;2023-06-10T07:09:13;21.60;5.00
10245;DHT22;5167;52.164;10.530;2023-06-10T07:11:39;21.70;5.00
10245;DHT22;5167;52.164;10.530;2023-06-10T07:14:04;21.80;5.00
10245;DHT22;5167;52.164;10.530;2023-06-10T07:16:30;21.80;5.00
10245;DHT22;5167;52.164;10.530;2023-06-10T07:18:55;21.90;5.00
10245;DHT22;5167;52.164;10.530;2023-06-10T07:21:21;21.90;5.00
10245;DHT22;5167;52.164;10.530;2023-06-10T07:23:48;22.00;5.00
10245;DHT22;5167;52.164;10.530;2023-06-10T07:26:14;22.20;5.00
10245;DHT22;5167;52.164;10.530;2023-06-10T07:28:43;22.30;5.00
10245;DHT22;5167;52.164;10.530;2023-06-10T07:31:08;22.40;5.00
10245;DHT22;5167;52.164;10.530;2023-06-10T07:33:35;22.40;5.00
10245;DHT22;5167;52.164;10.530;2023-06-10T07:36:08;22.60;5.00
10245;DHT22;5167;52.164;10.530;2023-06-10T07:38:34;22.50;5.00
10245;DHT22;5167;52.164;10.530;2023-06-10T07:40:59;22.50;5.00
10245;DHT22;5167;52.164;10.530;2023-06-10T07:43:25;22.60;5.00
10245;DHT22;5167;52.164;10.530;2023-06-10T07:45:50;22.70;5.00
10245;DHT22;5167;52.164;10.530;2023-06-10T07:48:16;22.70;5.00
10245;DHT22;5167;52.164;10.530;2023-06-10T07:50:42;22.90;5.00
10245;DHT22;5167;52.164;10.530;2023-06-10T07:53:07;22.90;5.00
10245;DHT22;5167;52.164;10.530;2023-06-10T07:55:33;23.00;5.00
10245;DHT22;5167;52.164;10.530;2023-06-10T07:57:58;23.10;5.00
10245;DHT22;5167;52.164;10.530;2023-06-10T08:00:24;23.10;5.00
10245;DHT22;5167;52.164;10.530;2023-06-10T08:02:50;23.20;5.00
10245;DHT22;5167;52.164;10.530;2023-06-10T08:05:16;23.20;5.00
10245;DHT22;5167;52.164;10.530;2023-06-10T08:07:42;23.20;5.00
10245;DHT22;5167;52.164;10.530;2023-06-10T08:10:08;23.30;5.00
10245;DHT22;5167;52.164;10.530;2023-06-10T08:12:35;23.40;5.00
10245;DHT22;5167;52.164;10.530;2023-06-10T08:15:01;23.40;5.00
10245;DHT22;5167;52.164;10.530;2023-06-10T08:17:27;23.50;5.00
10245;DHT22;5167;52.164;10.530;2023-06-10T08:19:53;23.60;5.00
10245;DHT22;5167;52.164;10.530;2023-06-10T08:22:18;23.70;5.00
10245;DHT22;5167;52.164;10.530;2023-06-10T08:24:44;23.80;5.00
10245;DHT22;5167;52.164;10.530;2023-06-10T08:27:09;23.80;5.00
10245;DHT22;5167;52.164;10.530;2023-06-10T08:29:36;23.90;5.00
10245;DHT22;5167;52.164;10.530;2023-06-10T08:32:01;23.90;5.00
10245;DHT22;5167;52.164;10.530;2023-06-10T08:34:27;24.00;5.00
10245;DHT22;5167;52.164;10.530;2023-06-10T08:36:53;24.10;5.00
10245;DHT22;5167;52.164;10.530;2023-06-10T08:39:21;24.10;5.00
10245;DHT22;5167;52.164;10.530;2023-06-10T08:41:58;24.20;5.00
10245;DHT22;5167;52.164;10.530;2023-06-10T08:44:29;24.30;5.00
10245;DHT22;5167;52.164;10.530;2023-06-10T08:47:00;24.40;5.00
10245;DHT22;5167;52.164;10.530;2023-06-10T08:49:26;24.60;5.00
10245;DHT22;5167;52.164;10.530;2023-06-10T08:52:03;24.70;5.00
10245;DHT22;5167;52.164;10.530;2023-06-10T08:54:33;24.70;5.00
10245;DHT22;5167;52.164;10.530;2023-06-10T08:57:05;24.80;5.00
10245;DHT22;5167;52.164;10.530;2023-06-10T08:59:31;24.80;5.00
10245;DHT22;5167;52.164;10.530;2023-06-10T09:01:57;25.00;5.00
10245;DHT22;5167;52.164;10.530;2023-06-10T09:04:24;25.10;5.00
10245;DHT22;5167;52.164;10.530;2023-06-10T09:06:50;25.30;5.00
10245;DHT22;5167;52.164;10.530;2023-06-10T09:09:16;25.50;5.00
10245;DHT22;5167;52.164;10.530;2023-06-10T09:11:43;25.60;5.00
10245;DHT22;5167;52.164;10.530;2023-06-10T09:14:08;25.60;5.00
10245;DHT22;5167;52.164;10.530;2023-06-10T09:16:34;25.70;5.00
10245;DHT22;5167;52.164;10.530;2023-06-10T09:19:01;25.90;5.00
10245;DHT22;5167;52.164;10.530;2023-06-10T09:21:27;25.90;5.00
10245;DHT22;5167;52.164;10.530;2023-06-10T09:23:53;26.00;5.00
10245;DHT22;5167;52.164;10.530;2023-06-10T09:26:19;26.00;5.00
10245;DHT22;5167;52.164;10.530;2023-06-10T09:28:48;26.10;5.00
10245;DHT22;5167;52.164;10.530;2023-06-10T09:31:16;26.20;5.00
10245;DHT22;5167;52.164;10.530;2023-06-10T09:33:45;26.30;5.00
10245;DHT22;5167;52.164;10.530;2023-06-10T09:36:10;26.50;5.00
10245;DHT22;5167;52.164;10.530;2023-06-10T09:38:36;26.50;5.00
10245;DHT22;5167;52.164;10.530;2023-06-10T09:41:03;26.60;5.00
10245;DHT22;5167;52.164;10.530;2023-06-10T09:43:42;26.60;5.00
10245;DHT22;5167;52.164;10.530;2023-06-10T09:46:16;26.80;5.00
10245;DHT22;5167;52.164;10.530;2023-06-10T09:48:44;26.80;5.00
10245;DHT22;5167;52.164;10.530;2023-06-10T09:51:11;26.90;5.00
10245;DHT22;5167;52.164;10.530;2023-06-10T09:53:37;27.10;5.00
10245;DHT22;5167;52.164;10.530;2023-06-10T09:56:03;27.20;5.00
10245;DHT22;5167;52.164;10.530;2023-06-10T09:58:37;27.20;5.00
10245;DHT22;5167;52.164;10.530;2023-06-10T10:01:09;27.30;5.00
10245;DHT22;5167;52.164;10.530;2023-06-10T10:03:43;27.50;5.00
10245;DHT22;5167;52.164;10.530;2023-06-10T10:06:09;27.50;5.00
10245;DHT22;5167;52.164;10.530;2023-06-10T10:08:36;27.50;5.00
10245;DHT22;5167;52.164;10.530;2023-06-10T10:11:02;27.60;5.00
10245;DHT22;5167;52.164;10.530;2023-06-10T10:13:29;27.60;5.00
10245;DHT22;5167;52.164;10.530;2023-06-10T10:15:59;27.60;5.00
10245;DHT22;5167;52.164;10.530;2023-06-10T10:18:29;27.60;5.00
10245;DHT22;5167;52.164;10.530;2023-06-10T10:20:58;27.70;5.00
10245;DHT22;5167;52.164;10.530;2023-06-10T10:23:31;27.50;5.00
10245;DHT22;5167;52.164;10.530;2023-06-10T10:26:00;27.60;5.00
10245;DHT22;5167;52.164;10.530;2023-06-10T10:28:37;27.60;5.00
10245;DHT22;5167;52.164;10.530;2023-06-10T10:31:09;27.70;5.00
10245;DHT22;5167;52.164;10.530;2023-06-10T10:33:49;27.70;5.00
10245;DHT22;5167;52.164;10.530;2023-06-10T10:36:17;27.70;5.00
10245;DHT22;5167;52.164;10.530;2023-06-10T10:38:45;27.80;5.00
10245;DHT22;5167;52.164;10.530;2023-06-10T10:41:13;27.90;5.00
10245;DHT22;5167;52.164;10.530;2023-06-10T10:43:40;28.00;5.00
10245;DHT22;5167;52.164;10.530;2023-06-10T10:46:12;28.00;5.00
10245;DHT22;5167;52.164;10.530;2023-06-10T10:48:38;28.10;5.00
10245;DHT22;5167;52.164;10.530;2023-06-10T10:51:04;28.10;5.00
10245;DHT22;5167;52.164;10.530;2023-06-10T10:53:30;28.10;5.00
10245;DHT22;5167;52.164;10.530;2023-06-10T10:58:35;28.10;5.00
10245;DHT22;5167;52.164;10.530;2023-06-10T11:01:13;28.20;5.00
10245;DHT22;5167;52.164;10.530;2023-06-10T11:03:44;28.20;5.00
10245;DHT22;5167;52.164;10.530;2023-06-10T11:06:14;28.20;5.00
10245;DHT22;5167;52.164;10.530;2023-06-10T11:11:24;28.50;5.00
10245;DHT22;5167;52.164;10.530;2023-06-10T11:16:40;28.70;5.00
10245;DHT22;5167;52.164;10.530;2023-06-10T11:19:06;28.70;5.00
10245;DHT22;5167;52.164;10.530;2023-06-10T11:21:45;28.90;5.00
10245;DHT22;5167;52.164;10.530;2023-06-10T11:24:22;29.10;5.00
10245;DHT22;5167;52.164;10.530;2023-06-10T11:26:48;29.20;5.00
10245;DHT22;5167;52.164;10.530;2023-06-10T11:29:15;29.20;5.00
10245;DHT22;5167;52.164;10.530;2023-06-10T11:31:43;29.30;5.00
10245;DHT22;5167;52.164;10.530;2023-06-10T11:34:09;29.20;5.00
10245;DHT22;5167;52.164;10.530;2023-06-10T11:36:40;29.20;5.00
10245;DHT22;5167;52.164;10.530;2023-06-10T11:39:08;29.20;5.00
10245;DHT22;5167;52.164;10.530;2023-06-10T11:41:35;29.20;5.00
10245;DHT22;5167;52.164;10.530;2023-06-10T11:44:12;29.20;5.00
10245;DHT22;5167;52.164;10.530;2023-06-10T11:46:39;29.20;5.00
10245;DHT22;5167;52.164;10.530;2023-06-10T11:49:06;29.30;5.00
10245;DHT22;5167;52.164;10.530;2023-06-10T11:51:39;29.40;5.00
10245;DHT22;5167;52.164;10.530;2023-06-10T11:54:08;29.50;5.00
10245;DHT22;5167;52.164;10.530;2023-06-10T11:56:34;29.50;5.00
10245;DHT22;5167;52.164;10.530;2023-06-10T11:59:04;29.50;5.00
10245;DHT22;5167;52.164;10.530;2023-06-10T12:01:37;29.60;5.00
10245;DHT22;5167;52.164;10.530;2023-06-10T12:04:07;29.60;5.00
10245;DHT22;5167;52.164;10.530;2023-06-10T12:06:45;29.70;5.00
10245;DHT22;5167;52.164;10.530;2023-06-10T12:09:28;29.60;5.00
10245;DHT22;5167;52.164;10.530;2023-06-10T12:12:04;29.70;5.00
10245;DHT22;5167;52.164;10.530;2023-06-10T12:14:59;29.70;5.00
10245;DHT22;5167;52.164;10.530;2023-06-10T12:19:57;29.70;5.00
10245;DHT22;5167;52.164;10.530;2023-06-10T12:22:23;29.70;5.00
10245;DHT22;5167;52.164;10.530;2023-06-10T12:25:01;29.80;5.00
10245;DHT22;5167;52.164;10.530;2023-06-10T12:27:29;29.70;5.00
10245;DHT22;5167;52.164;10.530;2023-06-10T12:29:56;29.80;5.00
10245;DHT22;5167;52.164;10.530;2023-06-10T12:32:42;29.80;5.00
10245;DHT22;5167;52.164;10.530;2023-06-10T12:35:09;29.90;5.00
10245;DHT22;5167;52.164;10.530;2023-06-10T12:37:36;29.90;5.00
10245;DHT22;5167;52.164;10.530;2023-06-10T12:40:03;29.90;5.00
10245;DHT22;5167;52.164;10.530;2023-06-10T12:42:30;29.90;5.00
10245;DHT22;5167;52.164;10.530;2023-06-10T12:44:57;29.90;5.00
10245;DHT22;5167;52.164;10.530;2023-06-10T12:47:30;29.90;5.00
10245;DHT22;5167;52.164;10.530;2023-06-10T12:49:58;29.90;5.00
10245;DHT22;5167;52.164;10.530;2023-06-10T12:52:24;29.80;5.00
10245;DHT22;5167;52.164;10.530;2023-06-10T12:54:50;29.70;5.00
10245;DHT22;5167;52.164;10.530;2023-06-10T12:57:17;29.70;5.00
10245;DHT22;5167;52.164;10.530;2023-06-10T12:59:42;29.70;5.00
10245;DHT22;5167;52.164;10.530;2023-06-10T13:02:16;29.60;5.00
10245;DHT22;5167;52.164;10.530;2023-06-10T13:04:44;29.70;5.00
10245;DHT22;5167;52.164;10.530;2023-06-10T13:07:10;29.70;5.00
10245;DHT22;5167;52.164;10.530;2023-06-10T13:09:36;29.60;5.00
10245;DHT22;5167;52.164;10.530;2023-06-10T13:12:02;29.70;5.00
10245;DHT22;5167;52.164;10.530;2023-06-10T13:14:27;29.70;5.00
10245;DHT22;5167;52.164;10.530;2023-06-10T13:16:54;29.70;5.00
10245;DHT22;5167;52.164;10.530;2023-06-10T13:19:20;29.70;5.00
10245;DHT22;5167;52.164;10.530;2023-06-10T13:21:47;29.70;5.00
10245;DHT22;5167;52.164;10.530;2023-06-10T13:24:13;29.70;5.00
10245;DHT22;5167;52.164;10.530;2023-06-10T13:26:39;29.70;5.00
10245;DHT22;5167;52.164;10.530;2023-06-10T13:29:04;29.70;5.00
10245;DHT22;5167;52.164;10.530;2023-06-10T13:31:30;29.70;5.00
10245;DHT22;5167;52.164;10.530;2023-06-10T13:33:57;29.80;5.00
10245;DHT22;5167;52.164;10.530;2023-06-10T13:36:23;29.70;5.00
10245;DHT22;5167;52.164;10.530;2023-06-10T13:38:49;29.80;5.00
10245;DHT22;5167;52.164;10.530;2023-06-10T13:41:15;29.80;5.00
10245;DHT22;5167;52.164;10.530;2023-06-10T13:43:41;29.90;5.00
10245;DHT22;5167;52.164;10.530;2023-06-10T13:46:07;29.90;5.00
10245;DHT22;5167;52.164;10.530;2023-06-10T13:48:32;29.90;5.00
10245;DHT22;5167;52.164;10.530;2023-06-10T13:50:59;30.00;5.00
10245;DHT22;5167;52.164;10.530;2023-06-10T13:53:25;29.90;5.00
10245;DHT22;5167;52.164;10.530;2023-06-10T13:55:51;30.00;5.00
10245;DHT22;5167;52.164;10.530;2023-06-10T13:58:17;29.90;5.00
10245;DHT22;5167;52.164;10.530;2023-06-10T14:00:42;30.00;5.00
10245;DHT22;5167;52.164;10.530;2023-06-10T14:03:08;29.90;5.00
10245;DHT22;5167;52.164;10.530;2023-06-10T14:05:37;29.90;5.00
10245;DHT22;5167;52.164;10.530;2023-06-10T14:08:03;29.90;5.00
10245;DHT22;5167;52.164;10.530;2023-06-10T14:10:29;29.90;5.00
10245;DHT22;5167;52.164;10.530;2023-06-10T14:12:54;29.90;5.00
10245;DHT22;5167;52.164;10.530;2023-06-10T14:15:20;30.00;5.00
10245;DHT22;5167;52.164;10.530;2023-06-10T14:17:45;30.00;5.00
10245;DHT22;5167;52.164;10.530;2023-06-10T14:20:11;29.90;5.00
10245;DHT22;5167;52.164;10.530;2023-06-10T14:22:37;29.90;5.00
10245;DHT22;5167;52.164;10.530;2023-06-10T14:25:03;29.90;5.00
10245;DHT22;5167;52.164;10.530;2023-06-10T14:27:29;30.00;5.00
10245;DHT22;5167;52.164;10.530;2023-06-10T14:29:55;30.00;5.00
10245;DHT22;5167;52.164;10.530;2023-06-10T14:32:20;30.00;5.00
10245;DHT22;5167;52.164;10.530;2023-06-10T14:34:46;30.10;5.00
10245;DHT22;5167;52.164;10.530;2023-06-10T14:37:12;30.00;5.00
10245;DHT22;5167;52.164;10.530;2023-06-10T14:39:38;30.10;5.00
10245;DHT22;5167;52.164;10.530;2023-06-10T14:42:04;30.00;5.00
10245;DHT22;5167;52.164;10.530;2023-06-10T14:44:30;30.10;5.00
10245;DHT22;5167;52.164;10.530;2023-06-10T14:46:56;30.10;5.00
10245;DHT22;5167;52.164;10.530;2023-06-10T14:49:22;30.00;5.00
10245;DHT22;5167;52.164;10.530;2023-06-10T14:51:48;30.00;5.00
10245;DHT22;5167;52.164;10.530;2023-06-10T14:54:15;30.10;5.00
10245;DHT22;5167;52.164;10.530;2023-06-10T14:56:41;30.00;5.00
10245;DHT22;5167;52.164;10.530;2023-06-10T14:59:07;29.90;5.00
10245;DHT22;5167;52.164;10.530;2023-06-10T15:01:33;30.00;5.00
10245;DHT22;5167;52.164;10.530;2023-06-10T15:03:58;30.00;5.00
10245;DHT22;5167;52.164;10.530;2023-06-10T15:06:24;30.00;5.00
10245;DHT22;5167;52.164;10.530;2023-06-10T15:08:51;30.00;5.00
10245;DHT22;5167;52.164;10.530;2023-06-10T15:11:17;30.10;5.00
10245;DHT22;5167;52.164;10.530;2023-06-10T15:13:43;30.00;5.00
10245;DHT22;5167;52.164;10.530;2023-06-10T15:16:08;30.00;5.00
10245;DHT22;5167;52.164;10.530;2023-06-10T15:18:34;30.10;5.00
10245;DHT22;5167;52.164;10.530;2023-06-10T15:21:00;30.10;5.00
10245;DHT22;5167;52.164;10.530;2023-06-10T15:23:25;30.10;5.00
10245;DHT22;5167;52.164;10.530;2023-06-10T15:25:51;30.00;5.00
10245;DHT22;5167;52.164;10.530;2023-06-10T15:28:17;30.30;5.00
10245;DHT22;5167;52.164;10.530;2023-06-10T15:30:42;30.10;5.00
10245;DHT22;5167;52.164;10.530;2023-06-10T15:33:08;30.10;5.00
10245;DHT22;5167;52.164;10.530;2023-06-10T15:35:34;30.10;5.00
10245;DHT22;5167;52.164;10.530;2023-06-10T15:37:59;30.10;5.00
10245;DHT22;5167;52.164;10.530;2023-06-10T15:40:25;30.10;5.00
10245;DHT22;5167;52.164;10.530;2023-06-10T15:42:51;30.10;5.00
10245;DHT22;5167;52.164;10.530;2023-06-10T15:45:17;30.10;5.00
10245;DHT22;5167;52.164;10.530;2023-06-10T15:47:43;30.00;5.00
10245;DHT22;5167;52.164;10.530;2023-06-10T15:50:09;29.90;5.00
10245;DHT22;5167;52.164;10.530;2023-06-10T15:52:35;29.70;5.00
10245;DHT22;5167;52.164;10.530;2023-06-10T15:55:01;29.50;5.00
10245;DHT22;5167;52.164;10.530;2023-06-10T15:57:27;29.30;5.00
10245;DHT22;5167;52.164;10.530;2023-06-10T15:59:53;29.10;5.00